Time,TemperatureF,DewpointF,PressureIn,WindDirection,WindDirectionDegrees,WindSpeedMPH,WindSpeedGustMPH,Humidity,HourlyPrecipIn,Conditions,Clouds,dailyrainin,SoftwareType,DateUTC
2013-02-03 00:03:00,52.0,47.6,30.16,North,0,0.0,0.0,85,0.00,CLR,,0.00,WeatherDisplay:10.37,2013-02-03 06:03:00,
2013-02-03 00:08:00,52.0,47.6,30.16,West,270,0.0,0.0,85,0.00,CLR,,0.00,WeatherDisplay:10.37,2013-02-03 06:08:00,
2013-02-03 00:13:00,51.8,47.4,30.16,West,270,0.0,0.0,85,0.00,CLR,,0.00,WeatherDisplay:10.37,2013-02-03 06:13:00,
2013-02-03 00:18:00,51.6,47.3,30.16,West,270,0.0,0.0,85,0.00,CLR,,0.00,WeatherDisplay:10.37,2013-02-03 06:18:00,
2013-02-03 00:23:00,51.4,47.4,30.15,West,270,0.0,0.0,86,0.00,CLR,,0.00,WeatherDisplay:10.37,2013-02-03 06:23:00,
2013-02-03 00:28:00,51.4,47.4,30.16,West,270,0.0,0.0,86,0.00,CLR,,0.00,WeatherDisplay:10.37,2013-02-03 06:28:00,
2013-02-03 00:33:00,51.1,47.0,30.16,West,270,0.0,0.0,86,0.00,CLR,,0.00,WeatherDisplay:10.37,2013-02-03 06:33:00,
2013-02-03 00:38:00,50.9,46.9,30.16,West,270,0.0,0.0,86,0.00,CLR,,0.00,WeatherDisplay:10.37,2013-02-03 06:38:00,
2013-02-03 00:43:00,50.5,46.5,30.16,NW,315,1.1,0.0,86,0.00,CLR,,0.00,WeatherDisplay:10.37,2013-02-03 06:43:00,
2013-02-03 00:48:00,50.4,46.6,30.15,NW,315,1.1,0.0,87,0.00,CLR,,0.00,WeatherDisplay:10.37,2013-02-03 06:48:00,
2013-02-03 00:53:00,50.2,46.5,30.16,North,0,1.1,0.0,87,0.00,CLR,,0.00,WeatherDisplay:10.37,2013-02-03 06:53:00,
2013-02-03 00:58:00,50.0,46.6,30.16,North,0,1.1,0.0,88,0.00,CLR,,0.00,WeatherDisplay:10.37,2013-02-03 06:58:00,
2013-02-03 01:04:00,50.0,46.6,30.15,North,0,1.1,0.0,88,0.00,CLR,,0.00,WeatherDisplay:10.37,2013-02-03 07:04:00,
2013-02-03 01:09:00,49.5,46.1,30.15,North,0,1.1,0.0,88,0.00,CLR,,0.00,WeatherDisplay:10.37,2013-02-03 07:09:00,
2013-02-03 01:14:00,49.3,45.9,30.16,North,0,0.0,0.0,88,0.00,CLR,,0.00,WeatherDisplay:10.37,2013-02-03 07:14:00,
2013-02-03 01:19:00,49.1,45.7,30.15,North,0,0.0,0.0,88,0.00,CLR,,0.00,WeatherDisplay:10.37,2013-02-03 07:19:00,
2013-02-03 01:24:00,48.7,45.6,30.14,North,0,0.0,0.0,89,0.00,CLR,,0.00,WeatherDisplay:10.37,2013-02-03 07:24:00,
2013-02-03 01:29:00,48.6,45.5,30.15,North,0,0.0,0.0,89,0.00,CLR,,0.00,WeatherDisplay:10.37,2013-02-03 07:29:00,
2013-02-03 01:34:00,48.4,45.3,30.15,North,0,0.0,0.0,89,0.00,CLR,,0.00,WeatherDisplay:10.37,2013-02-03 07:34:00,
2013-02-03 01:39:00,48.4,45.6,30.15,North,0,0.0,0.0,90,0.00,CLR,,0.00,WeatherDisplay:10.37,2013-02-03 07:39:00,
2013-02-03 01:44:00,48.2,45.4,30.15,North,0,0.0,0.0,90,0.00,CLR,,0.00,WeatherDisplay:10.37,2013-02-03 07:44:00,
2013-02-03 01:49:00,48.0,45.2,30.15,North,0,0.0,0.0,90,0.00,CLR,,0.00,WeatherDisplay:10.37,2013-02-03 07:49:00,
2013-02-03 01:54:00,47.7,44.9,30.15,North,0,0.0,0.0,90,0.00,CLR,,0.00,WeatherDisplay:10.37,2013-02-03 07:54:00,
2013-02-03 01:59:00,47.5,44.7,30.15,North,0,0.0,0.0,90,0.00,CLR,,0.00,WeatherDisplay:10.37,2013-02-03 07:59:00,
2013-02-03 02:04:00,47.5,44.7,30.15,North,0,0.0,0.0,90,0.00,CLR,,0.00,WeatherDisplay:10.37,2013-02-03 08:04:00,
2013-02-03 02:09:00,47.3,44.8,30.15,North,0,1.1,0.0,91,0.00,CLR,,0.00,WeatherDisplay:10.37,2013-02-03 08:09:00,
2013-02-03 02:14:00,47.1,44.6,30.14,North,0,0.0,0.0,91,0.00,CLR,,0.00,WeatherDisplay:10.37,2013-02-03 08:14:00,
2013-02-03 02:19:00,46.8,44.3,30.14,SE,135,1.1,0.0,91,0.00,CLR,,0.00,WeatherDisplay:10.37,2013-02-03 08:19:00,
2013-02-03 02:24:00,46.8,44.3,30.14,SE,135,0.0,0.0,91,0.00,CLR,,0.00,WeatherDisplay:10.37,2013-02-03 08:24:00,
2013-02-03 02:29:00,46.4,43.9,30.14,SE,135,0.0,0.0,91,0.00,CLR,,0.00,WeatherDisplay:10.37,2013-02-03 08:29:00,
2013-02-03 02:34:00,46.2,43.7,30.14,SE,135,0.0,0.0,91,0.00,CLR,,0.00,WeatherDisplay:10.37,2013-02-03 08:34:00,
2013-02-03 02:39:00,46.0,43.6,30.14,SE,135,0.0,0.0,91,0.00,CLR,,0.00,WeatherDisplay:10.37,2013-02-03 08:39:00,
2013-02-03 02:44:00,45.9,43.7,30.14,SE,135,0.0,0.0,92,0.00,CLR,,0.00,WeatherDisplay:10.37,2013-02-03 08:44:00,
2013-02-03 02:49:00,45.7,43.5,30.14,SE,135,0.0,0.0,92,0.00,CLR,,0.00,WeatherDisplay:10.37,2013-02-03 08:49:00,
2013-02-03 02:54:00,45.7,43.5,30.14,West,270,0.0,0.0,92,0.00,CLR,,0.00,WeatherDisplay:10.37,2013-02-03 08:54:00,
2013-02-03 02:59:00,45.5,43.3,30.14,West,270,0.0,0.0,92,0.00,CLR,,0.00,WeatherDisplay:10.37,2013-02-03 08:59:00,
2013-02-03 03:04:00,45.3,43.1,30.14,West,270,0.0,0.0,92,0.00,CLR,,0.00,WeatherDisplay:10.37,2013-02-03 09:04:00,
2013-02-03 03:09:00,45.0,42.8,30.14,West,270,0.0,0.0,92,0.00,CLR,,0.00,WeatherDisplay:10.37,2013-02-03 09:09:00,
2013-02-03 03:14:00,44.8,42.6,30.14,West,270,0.0,0.0,92,0.00,CLR,,0.00,WeatherDisplay:10.37,2013-02-03 09:14:00,
2013-02-03 03:19:00,44.6,42.4,30.14,West,270,0.0,0.0,92,0.00,CLR,,0.00,WeatherDisplay:10.37,2013-02-03 09:19:00,
2013-02-03 03:24:00,44.4,42.5,30.14,West,270,0.0,0.0,93,0.00,CLR,,0.00,WeatherDisplay:10.37,2013-02-03 09:24:00,
2013-02-03 03:29:00,44.4,42.5,30.14,West,270,0.0,0.0,93,0.00,CLR,,0.00,WeatherDisplay:10.37,2013-02-03 09:29:00,
2013-02-03 03:34:00,44.1,42.2,30.14,West,270,0.0,0.0,93,0.00,CLR,,0.00,WeatherDisplay:10.37,2013-02-03 09:34:00,
2013-02-03 03:39:00,44.1,42.2,30.14,West,270,0.0,0.0,93,0.00,CLR,,0.00,WeatherDisplay:10.37,2013-02-03 09:39:00,
2013-02-03 03:44:00,43.9,42.0,30.15,East,90,0.0,0.0,93,0.00,CLR,,0.00,WeatherDisplay:10.37,2013-02-03 09:44:00,
2013-02-03 03:49:00,43.7,41.8,30.15,East,90,1.1,0.0,93,0.00,CLR,,0.00,WeatherDisplay:10.37,2013-02-03 09:49:00,
2013-02-03 03:54:00,43.7,41.8,30.15,East,90,0.0,0.0,93,0.00,CLR,,0.00,WeatherDisplay:10.37,2013-02-03 09:54:00,
2013-02-03 03:59:00,43.5,41.6,30.15,East,90,0.0,0.0,93,0.00,CLR,,0.00,WeatherDisplay:10.37,2013-02-03 09:59:00,
2013-02-03 04:04:00,43.5,41.6,30.15,East,90,0.0,0.0,93,0.00,CLR,,0.00,WeatherDisplay:10.37,2013-02-03 10:04:00,
2013-02-03 04:09:00,43.3,41.5,30.15,NW,315,0.0,0.0,93,0.00,CLR,,0.00,WeatherDisplay:10.37,2013-02-03 10:09:00,
2013-02-03 04:14:00,43.2,41.3,30.15,NW,315,0.0,0.0,93,0.00,CLR,,0.00,WeatherDisplay:10.37,2013-02-03 10:14:00,
2013-02-03 04:19:00,43.0,41.1,30.15,NW,315,0.0,0.0,93,0.00,CLR,,0.00,WeatherDisplay:10.37,2013-02-03 10:19:00,
2013-02-03 04:24:00,42.8,40.9,30.15,NW,315,0.0,0.0,93,0.00,CLR,,0.00,WeatherDisplay:10.37,2013-02-03 10:24:00,
2013-02-03 04:29:00,42.6,41.0,30.15,NW,315,0.0,0.0,94,0.00,CLR,,0.00,WeatherDisplay:10.37,2013-02-03 10:29:00,
2013-02-03 04:34:00,42.6,41.0,30.16,South,180,0.0,0.0,94,0.00,CLR,,0.00,WeatherDisplay:10.37,2013-02-03 10:34:00,
2013-02-03 04:39:00,42.6,41.0,30.16,SE,135,1.1,0.0,94,0.00,CLR,,0.00,WeatherDisplay:10.37,2013-02-03 10:39:00,
2013-02-03 04:44:00,42.4,40.8,30.16,SE,135,1.1,0.0,94,0.00,CLR,,0.00,WeatherDisplay:10.37,2013-02-03 10:44:00,
2013-02-03 04:49:00,42.4,40.8,30.16,SE,135,0.0,0.0,94,0.00,CLR,,0.00,WeatherDisplay:10.37,2013-02-03 10:49:00,
2013-02-03 04:54:00,42.3,40.7,30.15,SE,135,0.0,0.0,94,0.00,CLR,,0.00,WeatherDisplay:10.37,2013-02-03 10:54:00,
2013-02-03 04:59:00,42.1,40.5,30.16,SE,135,0.0,0.0,94,0.00,CLR,,0.00,WeatherDisplay:10.37,2013-02-03 10:59:00,
2013-02-03 05:04:00,42.1,40.5,30.16,SE,135,0.0,0.0,94,0.00,CLR,,0.00,WeatherDisplay:10.37,2013-02-03 11:04:00,
2013-02-03 05:09:00,41.9,40.3,30.16,SE,135,0.0,0.0,94,0.00,CLR,,0.00,WeatherDisplay:10.37,2013-02-03 11:09:00,
2013-02-03 05:15:00,41.7,40.1,30.17,SE,135,0.0,0.0,94,0.00,CLR,,0.00,WeatherDisplay:10.37,2013-02-03 11:15:00,
2013-02-03 05:20:00,41.5,39.9,30.17,SE,135,0.0,0.0,94,0.00,CLR,,0.00,WeatherDisplay:10.37,2013-02-03 11:20:00,
2013-02-03 05:25:00,41.5,39.9,30.17,SE,135,0.0,0.0,94,0.00,CLR,,0.00,WeatherDisplay:10.37,2013-02-03 11:25:00,
2013-02-03 05:30:00,41.4,40.0,30.17,South,180,1.1,0.0,95,0.00,CLR,,0.00,WeatherDisplay:10.37,2013-02-03 11:30:00,
2013-02-03 05:35:00,41.5,40.2,30.17,North,0,1.1,0.0,95,0.00,CLR,,0.00,WeatherDisplay:10.37,2013-02-03 11:35:00,
2013-02-03 05:40:00,41.4,40.0,30.17,North,0,1.1,0.0,95,0.00,CLR,,0.00,WeatherDisplay:10.37,2013-02-03 11:40:00,
2013-02-03 05:45:00,41.4,40.0,30.17,North,0,0.0,0.0,95,0.00,CLR,,0.00,WeatherDisplay:10.37,2013-02-03 11:45:00,
2013-02-03 05:50:00,41.4,40.0,30.17,North,0,1.1,0.0,95,0.00,CLR,,0.00,WeatherDisplay:10.37,2013-02-03 11:50:00,
2013-02-03 05:55:00,41.4,40.0,30.18,North,0,1.1,0.0,95,0.00,CLR,,0.00,WeatherDisplay:10.37,2013-02-03 11:55:00,
2013-02-03 06:00:00,41.4,40.0,30.18,North,0,0.0,0.0,95,0.00,CLR,,0.00,WeatherDisplay:10.37,2013-02-03 12:00:00,
2013-02-03 06:05:00,41.4,40.0,30.18,North,0,0.0,0.0,95,0.00,CLR,,0.00,WeatherDisplay:10.37,2013-02-03 12:05:00,
2013-02-03 06:10:00,41.2,39.9,30.18,North,0,0.0,0.0,95,0.00,CLR,,0.00,WeatherDisplay:10.37,2013-02-03 12:10:00,
2013-02-03 06:15:00,41.0,39.7,30.19,North,0,0.0,0.0,95,0.00,CLR,,0.00,WeatherDisplay:10.37,2013-02-03 12:15:00,
2013-02-03 06:20:00,41.0,39.7,30.19,North,0,0.0,0.0,95,0.00,CLR,,0.00,WeatherDisplay:10.37,2013-02-03 12:20:00,
2013-02-03 06:25:00,40.7,39.4,30.18,North,0,0.0,0.0,95,0.00,CLR,,0.00,WeatherDisplay:10.37,2013-02-03 12:25:00,
2013-02-03 06:30:00,40.5,39.2,30.18,North,0,0.0,0.0,95,0.00,CLR,,0.00,WeatherDisplay:10.37,2013-02-03 12:30:00,
2013-02-03 06:35:00,40.3,39.0,30.18,North,0,0.0,0.0,95,0.00,CLR,,0.00,WeatherDisplay:10.37,2013-02-03 12:35:00,
2013-02-03 06:40:00,40.1,38.8,30.18,North,0,0.0,0.0,95,0.00,CLR,,0.00,WeatherDisplay:10.37,2013-02-03 12:40:00,
2013-02-03 06:45:00,40.1,38.8,30.18,North,0,0.0,0.0,95,0.00,CLR,,0.00,WeatherDisplay:10.37,2013-02-03 12:45:00,
2013-02-03 06:50:00,39.9,38.6,30.19,North,0,0.0,0.0,95,0.00,CLR,,0.00,WeatherDisplay:10.37,2013-02-03 12:50:00,
2013-02-03 06:55:00,39.7,38.4,30.19,North,0,0.0,0.0,95,0.00,CLR,,0.00,WeatherDisplay:10.37,2013-02-03 12:55:00,
2013-02-03 07:00:00,39.7,38.4,30.19,North,0,0.0,0.0,95,0.00,CLR,,0.00,WeatherDisplay:10.37,2013-02-03 13:00:00,
2013-02-03 07:05:00,39.6,38.2,30.19,North,0,0.0,0.0,95,0.00,CLR,,0.00,WeatherDisplay:10.37,2013-02-03 13:05:00,
2013-02-03 07:10:00,39.6,38.2,30.19,North,0,0.0,0.0,95,0.00,CLR,,0.00,WeatherDisplay:10.37,2013-02-03 13:10:00,
2013-02-03 07:15:00,39.4,38.1,30.19,North,0,0.0,0.0,95,0.00,CLR,,0.00,WeatherDisplay:10.37,2013-02-03 13:15:00,
2013-02-03 07:20:00,39.4,38.1,30.19,North,0,0.0,0.0,95,0.00,CLR,,0.00,WeatherDisplay:10.37,2013-02-03 13:20:00,
2013-02-03 07:25:00,39.4,38.1,30.19,North,0,0.0,0.0,95,0.00,CLR,,0.00,WeatherDisplay:10.37,2013-02-03 13:25:00,
2013-02-03 07:30:00,39.6,38.5,30.19,North,0,1.1,0.0,96,0.00,CLR,,0.00,WeatherDisplay:10.37,2013-02-03 13:30:00,
2013-02-03 07:35:00,39.7,38.7,30.20,North,0,0.0,0.0,96,0.00,CLR,,0.00,WeatherDisplay:10.37,2013-02-03 13:35:00,
2013-02-03 07:40:00,39.9,38.9,30.20,North,0,0.0,0.0,96,0.00,CLR,,0.00,WeatherDisplay:10.37,2013-02-03 13:40:00,
2013-02-03 07:45:00,39.9,38.9,30.19,North,0,0.0,0.0,96,0.00,CLR,,0.00,WeatherDisplay:10.37,2013-02-03 13:45:00,
2013-02-03 07:50:00,40.1,39.1,30.20,North,0,0.0,0.0,96,0.00,CLR,,0.00,WeatherDisplay:10.37,2013-02-03 13:50:00,
2013-02-03 07:55:00,40.3,39.2,30.19,North,0,1.1,0.0,96,0.00,CLR,,0.00,WeatherDisplay:10.37,2013-02-03 13:55:00,
2013-02-03 08:00:00,40.6,39.6,30.19,North,0,1.1,0.0,96,0.00,CLR,,0.00,WeatherDisplay:10.37,2013-02-03 14:00:00,
2013-02-03 08:05:00,40.6,39.6,30.19,North,0,1.1,0.0,96,0.00,CLR,,0.00,WeatherDisplay:10.37,2013-02-03 14:05:00,
2013-02-03 08:10:00,41.4,40.6,30.19,North,0,1.1,0.0,97,0.00,CLR,,0.00,WeatherDisplay:10.37,2013-02-03 14:10:00,
2013-02-03 08:15:00,41.5,40.8,30.19,North,0,1.1,0.0,97,0.00,CLR,,0.00,WeatherDisplay:10.37,2013-02-03 14:15:00,
2013-02-03 08:20:00,41.9,41.1,30.20,North,0,1.1,0.0,97,0.00,CLR,,0.00,WeatherDisplay:10.37,2013-02-03 14:20:00,
2013-02-03 08:25:00,42.4,41.6,30.20,North,0,0.0,0.0,97,0.00,CLR,,0.00,WeatherDisplay:10.37,2013-02-03 14:25:00,
2013-02-03 08:30:00,43.0,42.2,30.20,North,0,0.0,0.0,97,0.00,CLR,,0.00,WeatherDisplay:10.37,2013-02-03 14:30:00,
2013-02-03 08:35:00,43.3,42.5,30.20,North,0,0.0,0.0,97,0.00,CLR,,0.00,WeatherDisplay:10.37,2013-02-03 14:35:00,
2013-02-03 08:40:00,43.9,43.1,30.20,North,0,0.0,0.0,97,0.00,CLR,,0.00,WeatherDisplay:10.37,2013-02-03 14:40:00,
2013-02-03 08:45:00,44.2,43.4,30.20,North,0,0.0,0.0,97,0.00,CLR,,0.00,WeatherDisplay:10.37,2013-02-03 14:45:00,
2013-02-03 08:50:00,44.8,44.0,30.20,North,0,0.0,0.0,97,0.00,CLR,,0.00,WeatherDisplay:10.37,2013-02-03 14:50:00,
2013-02-03 08:55:00,45.1,44.3,30.21,North,0,0.0,0.0,97,0.00,CLR,,0.00,WeatherDisplay:10.37,2013-02-03 14:55:00,
2013-02-03 09:00:00,45.7,45.1,30.20,North,0,0.0,0.0,98,0.00,CLR,,0.00,WeatherDisplay:10.37,2013-02-03 15:00:00,
2013-02-03 09:05:00,45.7,45.1,30.20,North,0,0.0,0.0,98,0.00,CLR,,0.00,WeatherDisplay:10.37,2013-02-03 15:05:00,
2013-02-03 09:10:00,47.1,46.6,30.20,North,0,0.0,0.0,98,0.00,CLR,,0.00,WeatherDisplay:10.37,2013-02-03 15:10:00,
2013-02-03 09:15:00,47.7,47.1,30.20,North,0,0.0,0.0,98,0.00,CLR,,0.00,WeatherDisplay:10.37,2013-02-03 15:15:00,
2013-02-03 09:20:00,48.6,48.0,30.21,North,0,0.0,0.0,98,0.00,CLR,,0.00,WeatherDisplay:10.37,2013-02-03 15:20:00,
2013-02-03 09:25:00,49.5,48.9,30.21,North,0,1.1,0.0,98,0.00,CLR,,0.00,WeatherDisplay:10.37,2013-02-03 15:25:00,
2013-02-03 09:30:00,50.7,49.9,30.21,South,180,2.3,0.0,97,0.00,CLR,,0.00,WeatherDisplay:10.37,2013-02-03 15:30:00,
2013-02-03 09:35:00,52.2,50.8,30.21,South,180,1.1,0.0,95,0.00,CLR,,0.00,WeatherDisplay:10.37,2013-02-03 15:35:00,
2013-02-03 09:40:00,54.0,50.8,30.20,NW,315,3.5,3.5,89,0.00,CLR,,0.00,WeatherDisplay:10.37,2013-02-03 15:40:00,
2013-02-03 09:45:00,55.4,50.6,30.20,NE,45,1.1,0.0,84,0.00,CLR,,0.00,WeatherDisplay:10.37,2013-02-03 15:45:00,
2013-02-03 09:50:00,57.0,46.6,30.20,South,180,2.3,2.3,68,0.00,CLR,,0.00,WeatherDisplay:10.37,2013-02-03 15:50:00,
2013-02-03 09:55:00,58.5,48.7,30.20,NE,45,1.1,0.0,70,0.00,CLR,,0.00,WeatherDisplay:10.37,2013-02-03 15:55:00,
2013-02-03 10:00:00,59.7,46.7,30.21,South,180,3.5,3.5,62,0.00,CLR,,0.00,WeatherDisplay:10.37,2013-02-03 16:00:00,
2013-02-03 10:05:00,59.7,46.7,30.21,South,180,3.5,3.5,62,0.00,CLR,,0.00,WeatherDisplay:10.37,2013-02-03 16:05:00,
2013-02-03 10:10:00,61.0,44.2,30.20,NW,315,3.5,3.5,54,0.00,CLR,,0.00,WeatherDisplay:10.37,2013-02-03 16:10:00,
2013-02-03 10:15:00,61.5,43.7,30.21,NW,315,3.5,0.0,52,0.00,CLR,,0.00,WeatherDisplay:10.37,2013-02-03 16:15:00,
2013-02-03 10:21:00,62.6,44.7,30.21,North,0,3.5,0.0,52,0.00,CLR,,0.00,WeatherDisplay:10.37,2013-02-03 16:21:00,
2013-02-03 10:26:00,63.1,41.4,30.21,NW,315,4.6,4.6,45,0.00,CLR,,0.00,WeatherDisplay:10.37,2013-02-03 16:26:00,
2013-02-03 10:31:00,63.3,42.2,30.20,NE,45,8.1,8.1,46,0.00,CLR,,0.00,WeatherDisplay:10.37,2013-02-03 16:31:00,
2013-02-03 10:36:00,63.9,42.1,30.20,NE,45,5.8,5.8,45,0.00,CLR,,0.00,WeatherDisplay:10.37,2013-02-03 16:36:00,
2013-02-03 10:41:00,64.8,42.3,30.20,North,0,5.8,5.8,44,0.00,CLR,,0.00,WeatherDisplay:10.37,2013-02-03 16:41:00,
2013-02-03 10:46:00,65.5,42.4,30.20,West,270,2.3,0.0,43,0.00,CLR,,0.00,WeatherDisplay:10.37,2013-02-03 16:46:00,
2013-02-03 10:51:00,66.9,43.7,30.20,NE,45,3.5,3.5,43,0.00,CLR,,0.00,WeatherDisplay:10.37,2013-02-03 16:51:00,
2013-02-03 10:56:00,66.9,40.5,30.20,SW,225,3.5,3.5,38,0.00,CLR,,0.00,WeatherDisplay:10.37,2013-02-03 16:56:00,
2013-02-03 11:01:00,66.7,40.3,30.20,NE,45,4.6,4.6,38,0.00,CLR,,0.00,WeatherDisplay:10.37,2013-02-03 17:01:00,
2013-02-03 11:06:00,66.7,40.3,30.20,NE,45,4.6,4.6,38,0.00,CLR,,0.00,WeatherDisplay:10.37,2013-02-03 17:06:00,
2013-02-03 11:11:00,68.2,40.9,30.20,NW,315,1.1,2.2,37,0.00,CLR,,0.00,WeatherDisplay:10.37,2013-02-03 17:11:00,
2013-02-03 11:16:00,67.3,37.2,30.20,SW,225,5.8,5.8,33,0.00,CLR,,0.00,WeatherDisplay:10.37,2013-02-03 17:16:00,
2013-02-03 11:21:00,67.5,36.6,30.19,NW,315,5.8,5.8,32,0.00,CLR,,0.00,WeatherDisplay:10.37,2013-02-03 17:21:00,
2013-02-03 11:26:00,68.2,38.7,30.18,WSW,248,3.5,0.0,34,0.00,CLR,,0.00,WeatherDisplay:10.37,2013-02-03 17:26:00,
2013-02-03 11:31:00,68.2,35.5,30.18,SW,225,4.6,4.6,30,0.00,CLR,,0.00,WeatherDisplay:10.37,2013-02-03 17:31:00,
2013-02-03 11:36:00,68.2,36.4,30.19,NW,315,3.5,3.5,31,0.00,CLR,,0.00,WeatherDisplay:10.37,2013-02-03 17:36:00,
2013-02-03 11:41:00,68.7,37.7,30.18,North,0,5.8,5.8,32,0.00,CLR,,0.00,WeatherDisplay:10.37,2013-02-03 17:41:00,
2013-02-03 11:46:00,68.9,35.3,30.19,NE,45,1.1,1.6,29,0.00,CLR,,0.00,WeatherDisplay:10.37,2013-02-03 17:46:00,
2013-02-03 11:51:00,69.1,36.3,30.18,North,0,5.8,5.8,30,0.00,CLR,,0.00,WeatherDisplay:10.37,2013-02-03 17:51:00,
2013-02-03 11:56:00,68.7,34.3,30.18,West,270,3.5,3.5,28,0.00,CLR,,0.00,WeatherDisplay:10.37,2013-02-03 17:56:00,
2013-02-03 12:02:00,69.1,36.3,30.18,North,0,2.3,2.3,30,0.00,CLR,,0.00,WeatherDisplay:10.37,2013-02-03 18:02:00,
2013-02-03 12:07:00,69.1,36.3,30.17,North,0,2.3,2.3,30,0.00,CLR,,0.00,WeatherDisplay:10.37,2013-02-03 18:07:00,
2013-02-03 12:12:00,72.0,38.0,30.17,NNE,22,6.9,6.9,29,0.00,CLR,,0.00,WeatherDisplay:10.37,2013-02-03 18:12:00,
2013-02-03 12:17:00,72.3,36.4,30.17,NW,315,4.5,4.5,27,0.00,CLR,,0.00,WeatherDisplay:10.37,2013-02-03 18:17:00,
2013-02-03 12:22:00,71.1,35.4,30.16,NE,45,5.8,5.8,27,0.00,CLR,,0.00,WeatherDisplay:10.37,2013-02-03 18:22:00,
2013-02-03 12:27:00,70.0,33.5,30.16,North,0,4.6,4.6,26,0.00,CLR,,0.00,WeatherDisplay:10.37,2013-02-03 18:27:00,
2013-02-03 12:32:00,70.3,35.7,30.15,West,270,3.5,3.5,28,0.00,CLR,,0.00,WeatherDisplay:10.37,2013-02-03 18:32:00,
2013-02-03 12:37:00,70.3,34.8,30.16,West,270,3.5,3.5,27,0.00,CLR,,0.00,WeatherDisplay:10.37,2013-02-03 18:37:00,
2013-02-03 12:42:00,69.6,32.2,30.15,SW,225,3.5,3.5,25,0.00,CLR,,0.00,WeatherDisplay:10.37,2013-02-03 18:42:00,
2013-02-03 12:47:00,69.4,32.1,30.14,SSW,202,5.8,5.8,25,0.00,CLR,,0.00,WeatherDisplay:10.37,2013-02-03 18:47:00,
2013-02-03 12:52:00,69.3,34.7,30.14,SW,225,3.5,3.5,28,0.00,CLR,,0.00,WeatherDisplay:10.37,2013-02-03 18:52:00,
2013-02-03 12:57:00,69.6,32.2,30.14,West,270,4.6,4.6,25,0.00,CLR,,0.00,WeatherDisplay:10.37,2013-02-03 18:57:00,
2013-02-03 13:03:00,69.8,34.3,30.13,South,180,1.1,0.0,27,0.00,CLR,,0.00,WeatherDisplay:10.37,2013-02-03 19:03:00,
2013-02-03 13:08:00,70.2,32.7,30.13,SW,225,1.1,2.2,25,0.00,CLR,,0.00,WeatherDisplay:10.37,2013-02-03 19:08:00,
2013-02-03 13:13:00,69.8,32.4,30.13,West,270,5.8,5.8,25,0.00,CLR,,0.00,WeatherDisplay:10.37,2013-02-03 19:13:00,
2013-02-03 13:18:00,71.1,31.4,30.12,NW,315,5.8,5.8,23,0.00,CLR,,0.00,WeatherDisplay:10.37,2013-02-03 19:18:00,
2013-02-03 13:23:00,71.2,32.6,30.11,North,0,5.8,5.8,24,0.00,CLR,,0.00,WeatherDisplay:10.37,2013-02-03 19:23:00,
2013-02-03 13:28:00,72.3,32.4,30.11,East,90,5.8,5.8,23,0.00,CLR,,0.00,WeatherDisplay:10.37,2013-02-03 19:28:00,
2013-02-03 13:33:00,72.3,30.2,30.11,West,270,4.6,4.6,21,0.00,CLR,,0.00,WeatherDisplay:10.37,2013-02-03 19:33:00,
2013-02-03 13:38:00,72.5,32.6,30.11,ENE,68,3.5,3.5,23,0.00,CLR,,0.00,WeatherDisplay:10.37,2013-02-03 19:38:00,
2013-02-03 13:43:00,73.2,30.9,30.10,NE,45,5.8,5.8,21,0.00,CLR,,0.00,WeatherDisplay:10.37,2013-02-03 19:43:00,
2013-02-03 13:48:00,73.2,34.2,30.10,ENE,68,3.5,3.5,24,0.00,CLR,,0.00,WeatherDisplay:10.37,2013-02-03 19:48:00,
2013-02-03 13:53:00,73.2,29.7,30.10,West,270,6.9,6.9,20,0.00,CLR,,0.00,WeatherDisplay:10.37,2013-02-03 19:53:00,
2013-02-03 13:58:00,71.1,32.4,30.09,NW,315,5.8,5.8,24,0.00,CLR,,0.00,WeatherDisplay:10.37,2013-02-03 19:58:00,
2013-02-03 14:03:00,70.9,32.3,30.09,North,0,3.5,3.5,24,0.00,CLR,,0.00,WeatherDisplay:10.37,2013-02-03 20:03:00,
2013-02-03 14:08:00,69.8,32.4,30.09,North,0,3.5,3.8,25,0.00,CLR,,0.00,WeatherDisplay:10.37,2013-02-03 20:08:00,
2013-02-03 14:13:00,70.2,32.7,30.09,North,0,4.6,4.6,25,0.00,CLR,,0.00,WeatherDisplay:10.37,2013-02-03 20:13:00,
2013-02-03 14:18:00,70.5,29.8,30.08,SW,225,4.6,4.6,22,0.00,CLR,,0.00,WeatherDisplay:10.37,2013-02-03 20:18:00,
2013-02-03 14:23:00,69.8,31.4,30.08,South,180,8.1,8.1,24,0.00,CLR,,0.00,WeatherDisplay:10.37,2013-02-03 20:23:00,
2013-02-03 14:28:00,69.4,30.0,30.08,South,180,3.5,3.5,23,0.00,CLR,,0.00,WeatherDisplay:10.37,2013-02-03 20:28:00,
2013-02-03 14:33:00,69.1,31.8,30.08,West,270,6.9,6.9,25,0.00,CLR,,0.00,WeatherDisplay:10.37,2013-02-03 20:33:00,
2013-02-03 14:38:00,68.7,31.4,30.08,WSW,248,5.8,5.8,25,0.00,CLR,,0.00,WeatherDisplay:10.37,2013-02-03 20:38:00,
2013-02-03 14:43:00,68.7,32.4,30.07,NNE,22,3.5,3.5,26,0.00,CLR,,0.00,WeatherDisplay:10.37,2013-02-03 20:43:00,
2013-02-03 14:49:00,69.8,32.4,30.07,West,270,3.5,3.5,25,0.00,CLR,,0.00,WeatherDisplay:10.37,2013-02-03 20:49:00,
2013-02-03 14:54:00,70.3,33.8,30.08,North,0,3.5,3.5,26,0.00,CLR,,0.00,WeatherDisplay:10.37,2013-02-03 20:54:00,
2013-02-03 14:59:00,70.0,32.5,30.08,NE,45,4.6,4.6,25,0.00,CLR,,0.00,WeatherDisplay:10.37,2013-02-03 20:59:00,
2013-02-03 15:04:00,69.8,33.3,30.07,South,180,2.3,2.3,26,0.00,CLR,,0.00,WeatherDisplay:10.37,2013-02-03 21:04:00,
2013-02-03 15:09:00,68.9,32.6,30.07,WNW,292,3.5,3.5,26,0.00,CLR,,0.00,WeatherDisplay:10.37,2013-02-03 21:09:00,
2013-02-03 15:14:00,68.2,32.9,30.07,SW,225,3.5,3.5,27,0.00,CLR,,0.00,WeatherDisplay:10.37,2013-02-03 21:14:00,
2013-02-03 15:19:00,68.0,34.5,30.07,North,0,2.3,0.0,29,0.00,CLR,,0.00,WeatherDisplay:10.37,2013-02-03 21:19:00,
2013-02-03 15:24:00,68.0,34.5,30.07,West,270,4.6,4.6,29,0.00,CLR,,0.00,WeatherDisplay:10.37,2013-02-03 21:24:00,
2013-02-03 15:29:00,68.2,33.8,30.07,North,0,2.3,2.3,28,0.00,CLR,,0.00,WeatherDisplay:10.37,2013-02-03 21:29:00,
2013-02-03 15:34:00,68.0,34.5,30.06,NW,315,1.1,0.0,29,0.00,CLR,,0.00,WeatherDisplay:10.37,2013-02-03 21:34:00,
2013-02-03 15:39:00,67.8,32.6,30.06,West,270,3.5,3.5,27,0.00,CLR,,0.00,WeatherDisplay:10.37,2013-02-03 21:39:00,
2013-02-03 15:44:00,67.5,34.1,30.07,SW,225,1.6,0.0,29,0.00,CLR,,0.00,WeatherDisplay:10.37,2013-02-03 21:44:00,
2013-02-03 15:49:00,67.3,35.6,30.07,SW,225,1.1,0.0,31,0.00,CLR,,0.00,WeatherDisplay:10.37,2013-02-03 21:49:00,
2013-02-03 15:54:00,66.9,34.5,30.06,West,270,2.3,0.0,30,0.00,CLR,,0.00,WeatherDisplay:10.37,2013-02-03 21:54:00,
2013-02-03 15:59:00,66.7,35.1,30.06,NW,315,2.3,0.0,31,0.00,CLR,,0.00,WeatherDisplay:10.37,2013-02-03 21:59:00,
2013-02-03 16:04:00,66.7,35.9,30.07,NW,315,1.1,0.0,32,0.00,CLR,,0.00,WeatherDisplay:10.37,2013-02-03 22:04:00,
2013-02-03 16:09:00,66.4,34.8,30.06,SW,225,1.1,0.0,31,0.00,CLR,,0.00,WeatherDisplay:10.37,2013-02-03 22:09:00,
2013-02-03 16:15:00,66.2,36.2,30.06,WSW,237,0.0,2.0,33,0.00,CLR,,0.00,WeatherDisplay:10.37,2013-02-03 22:15:00,
2013-02-03 16:20:00,65.6,36.4,30.06,WSW,239,0.0,0.0,34,0.00,CLR,,0.00,WeatherDisplay:10.37,2013-02-03 22:20:00,
2013-02-03 16:25:00,65.5,37.1,30.06,WNW,291,0.0,1.0,35,0.00,CLR,,0.00,WeatherDisplay:10.37,2013-02-03 22:25:00,
2013-02-03 16:30:00,64.9,36.6,30.06,NW,315,0.0,1.0,35,0.00,CLR,,0.00,WeatherDisplay:10.37,2013-02-03 22:30:00,
2013-02-03 16:35:00,64.4,37.5,30.06,NW,315,0.0,1.0,37,0.00,CLR,,0.00,WeatherDisplay:10.37,2013-02-03 22:35:00,
2013-02-03 16:40:00,64.0,37.2,30.06,NW,315,0.0,1.0,37,0.00,CLR,,0.00,WeatherDisplay:10.37,2013-02-03 22:40:00,
2013-02-03 16:45:00,63.6,38.1,30.06,NW,315,0.0,0.0,39,0.00,CLR,,0.00,WeatherDisplay:10.37,2013-02-03 22:45:00,
2013-02-03 16:50:00,63.1,37.8,30.06,NW,315,0.0,0.0,39,0.00,CLR,,0.00,WeatherDisplay:10.37,2013-02-03 22:50:00,
2013-02-03 16:55:00,62.8,38.7,30.06,NW,315,0.0,0.0,41,0.00,CLR,,0.00,WeatherDisplay:10.37,2013-02-03 22:55:00,
2013-02-03 17:00:00,62.4,39.0,30.05,NW,315,0.0,0.0,42,0.00,CLR,,0.00,WeatherDisplay:10.37,2013-02-03 23:00:00,
2013-02-03 17:05:00,62.4,39.0,30.06,NW,315,0.0,0.0,42,0.00,CLR,,0.00,WeatherDisplay:10.37,2013-02-03 23:05:00,
2013-02-03 17:10:00,61.3,39.2,30.05,NW,315,0.0,0.0,44,0.00,CLR,,0.00,WeatherDisplay:10.37,2013-02-03 23:10:00,
2013-02-03 17:15:00,61.0,40.0,30.05,NW,315,1.1,0.0,46,0.00,CLR,,0.00,WeatherDisplay:10.37,2013-02-03 23:15:00,
2013-02-03 17:20:00,60.3,39.4,30.05,NW,315,0.0,0.0,46,0.00,CLR,,0.00,WeatherDisplay:10.37,2013-02-03 23:20:00,
2013-02-03 17:25:00,59.7,40.0,30.05,NW,315,0.0,0.0,48,0.00,CLR,,0.00,WeatherDisplay:10.37,2013-02-03 23:25:00,
2013-02-03 17:30:00,59.2,40.5,30.05,NW,315,0.0,0.0,50,0.00,CLR,,0.00,WeatherDisplay:10.37,2013-02-03 23:30:00,
2013-02-03 17:35:00,58.6,40.6,30.05,NW,315,0.0,0.0,51,0.00,CLR,,0.00,WeatherDisplay:10.37,2013-02-03 23:35:00,
2013-02-03 17:40:00,57.9,39.9,30.05,NW,315,0.0,0.0,51,0.00,CLR,,0.00,WeatherDisplay:10.37,2013-02-03 23:40:00,
2013-02-03 17:46:00,57.2,40.2,30.04,NW,315,0.0,0.0,53,0.00,CLR,,0.00,WeatherDisplay:10.37,2013-02-03 23:46:00,
2013-02-03 17:51:00,56.7,40.2,30.04,NW,315,0.0,0.0,54,0.00,CLR,,0.00,WeatherDisplay:10.37,2013-02-03 23:51:00,
2013-02-03 17:56:00,56.1,39.7,30.04,East,90,2.3,0.0,54,0.00,CLR,,0.00,WeatherDisplay:10.37,2013-02-03 23:56:00,
2013-02-03 18:01:00,55.6,39.7,30.04,NE,45,1.1,1.1,55,0.00,CLR,,0.00,WeatherDisplay:10.37,2013-02-04 00:01:00,
2013-02-03 18:06:00,55.6,39.7,30.04,NE,45,1.1,1.1,55,0.00,CLR,,0.00,WeatherDisplay:10.37,2013-02-04 00:06:00,
2013-02-03 18:11:00,55.0,39.6,30.04,NE,45,0.0,0.0,56,0.00,CLR,,0.00,WeatherDisplay:10.37,2013-02-04 00:11:00,
2013-02-03 18:16:00,54.5,39.1,30.04,NE,45,0.0,0.0,56,0.00,CLR,,0.00,WeatherDisplay:10.37,2013-02-04 00:16:00,
2013-02-03 18:21:00,54.1,39.2,30.04,NE,45,0.0,0.0,57,0.00,CLR,,0.00,WeatherDisplay:10.37,2013-02-04 00:21:00,
2013-02-03 18:26:00,53.6,38.7,30.04,NE,45,0.0,0.0,57,0.00,CLR,,0.00,WeatherDisplay:10.37,2013-02-04 00:26:00,
2013-02-03 18:31:00,53.2,38.8,30.05,NE,45,0.0,0.0,58,0.00,CLR,,0.00,WeatherDisplay:10.37,2013-02-04 00:31:00,
2013-02-03 18:36:00,52.7,38.8,30.05,NE,45,0.0,0.0,59,0.00,CLR,,0.00,WeatherDisplay:10.37,2013-02-04 00:36:00,
2013-02-03 18:41:00,52.5,39.5,30.05,North,0,1.1,0.0,61,0.00,CLR,,0.00,WeatherDisplay:10.37,2013-02-04 00:41:00,
2013-02-03 18:46:00,52.3,39.3,30.05,North,0,1.1,0.0,61,0.00,CLR,,0.00,WeatherDisplay:10.37,2013-02-04 00:46:00,
2013-02-03 18:51:00,52.2,39.5,30.04,North,0,1.1,0.0,62,0.00,CLR,,0.00,WeatherDisplay:10.37,2013-02-04 00:51:00,
2013-02-03 18:56:00,52.0,39.8,30.05,North,0,0.0,0.0,63,0.00,CLR,,0.00,WeatherDisplay:10.37,2013-02-04 00:56:00,
2013-02-03 19:01:00,51.8,39.6,30.05,North,0,1.1,0.0,63,0.00,CLR,,0.00,WeatherDisplay:10.37,2013-02-04 01:01:00,
2013-02-03 19:06:00,51.8,39.6,30.04,North,0,1.1,0.0,63,0.00,CLR,,0.00,WeatherDisplay:10.37,2013-02-04 01:06:00,
2013-02-03 19:11:00,51.4,39.7,30.04,North,0,1.1,0.0,64,0.00,CLR,,0.00,WeatherDisplay:10.37,2013-02-04 01:11:00,
2013-02-03 19:16:00,51.3,39.5,30.05,North,0,1.1,0.0,64,0.00,CLR,,0.00,WeatherDisplay:10.37,2013-02-04 01:16:00,
2013-02-03 19:21:00,50.9,39.1,30.04,North,0,0.0,0.0,64,0.00,CLR,,0.00,WeatherDisplay:10.37,2013-02-04 01:21:00,
2013-02-03 19:26:00,50.7,39.0,30.05,North,0,1.1,0.0,64,0.00,CLR,,0.00,WeatherDisplay:10.37,2013-02-04 01:26:00,
2013-02-03 19:31:00,50.7,39.4,30.04,North,0,1.1,0.0,65,0.00,CLR,,0.00,WeatherDisplay:10.37,2013-02-04 01:31:00,
2013-02-03 19:36:00,50.5,39.6,30.05,North,0,0.0,0.0,66,0.00,CLR,,0.00,WeatherDisplay:10.37,2013-02-04 01:36:00,
2013-02-03 19:41:00,50.2,39.6,30.05,North,0,0.0,0.0,67,0.00,CLR,,0.00,WeatherDisplay:10.37,2013-02-04 01:41:00,
2013-02-03 19:46:00,50.0,39.5,30.05,North,0,0.0,0.0,67,0.00,CLR,,0.00,WeatherDisplay:10.37,2013-02-04 01:46:00,
2013-02-03 19:51:00,50.0,39.8,30.05,North,0,1.1,0.0,68,0.00,CLR,,0.00,WeatherDisplay:10.37,2013-02-04 01:51:00,
2013-02-03 19:56:00,49.8,39.7,30.04,North,0,1.1,0.0,68,0.00,CLR,,0.00,WeatherDisplay:10.37,2013-02-04 01:56:00,
2013-02-03 20:01:00,49.6,39.5,30.04,North,0,0.0,0.0,68,0.00,CLR,,0.00,WeatherDisplay:10.37,2013-02-04 02:01:00,
2013-02-03 20:06:00,49.6,39.5,30.04,North,0,0.0,0.0,68,0.00,CLR,,0.00,WeatherDisplay:10.37,2013-02-04 02:06:00,
2013-02-03 20:11:00,49.5,40.1,30.04,NE,45,1.1,0.0,70,0.00,CLR,,0.00,WeatherDisplay:10.37,2013-02-04 02:11:00,
2013-02-03 20:16:00,49.1,40.1,30.04,NE,45,0.0,0.0,71,0.00,CLR,,0.00,WeatherDisplay:10.37,2013-02-04 02:16:00,
2013-02-03 20:21:00,48.7,39.8,30.04,North,0,1.1,0.0,71,0.00,CLR,,0.00,WeatherDisplay:10.37,2013-02-04 02:21:00,
2013-02-03 20:26:00,48.2,39.6,30.04,North,0,1.1,0.0,72,0.00,CLR,,0.00,WeatherDisplay:10.37,2013-02-04 02:26:00,
2013-02-03 20:31:00,48.0,39.4,30.04,North,0,1.1,0.0,72,0.00,CLR,,0.00,WeatherDisplay:10.37,2013-02-04 02:31:00,
2013-02-03 20:36:00,47.8,39.2,30.04,North,0,1.1,0.0,72,0.00,CLR,,0.00,WeatherDisplay:10.37,2013-02-04 02:36:00,
2013-02-03 20:41:00,47.7,39.1,30.04,North,0,1.1,0.0,72,0.00,CLR,,0.00,WeatherDisplay:10.37,2013-02-04 02:41:00,
2013-02-03 20:46:00,47.5,39.3,30.04,North,0,1.1,0.0,73,0.00,CLR,,0.00,WeatherDisplay:10.37,2013-02-04 02:46:00,
2013-02-03 20:51:00,47.5,39.6,30.04,North,0,1.1,0.0,74,0.00,CLR,,0.00,WeatherDisplay:10.37,2013-02-04 02:51:00,
2013-02-03 20:56:00,47.3,39.4,30.04,North,0,0.0,0.0,74,0.00,CLR,,0.00,WeatherDisplay:10.37,2013-02-04 02:56:00,
2013-02-03 21:01:00,47.1,39.6,30.04,North,0,0.0,0.0,75,0.00,CLR,,0.00,WeatherDisplay:10.37,2013-02-04 03:01:00,
2013-02-03 21:06:00,47.1,39.6,30.04,North,0,0.0,0.0,75,0.00,CLR,,0.00,WeatherDisplay:10.37,2013-02-04 03:06:00,
2013-02-03 21:12:00,46.8,39.6,30.04,North,0,1.1,0.0,76,0.00,CLR,,0.00,WeatherDisplay:10.37,2013-02-04 03:12:00,
2013-02-03 21:17:00,46.6,39.4,30.04,North,0,1.1,0.0,76,0.00,CLR,,0.00,WeatherDisplay:10.37,2013-02-04 03:17:00,
2013-02-03 21:22:00,46.8,39.6,30.04,SE,135,1.1,0.0,76,0.00,CLR,,0.00,WeatherDisplay:10.37,2013-02-04 03:22:00,
2013-02-03 21:27:00,46.9,40.1,30.04,SE,135,1.1,0.0,77,0.00,CLR,,0.00,WeatherDisplay:10.37,2013-02-04 03:27:00,
2013-02-03 21:32:00,46.8,39.9,30.04,NE,45,1.1,1.1,77,0.00,CLR,,0.00,WeatherDisplay:10.37,2013-02-04 03:32:00,
2013-02-03 21:37:00,46.8,39.9,30.03,North,0,1.1,1.1,77,0.00,CLR,,0.00,WeatherDisplay:10.37,2013-02-04 03:37:00,
2013-02-03 21:42:00,46.6,39.8,30.03,NW,315,1.1,0.0,77,0.00,CLR,,0.00,WeatherDisplay:10.37,2013-02-04 03:42:00,
2013-02-03 21:47:00,46.4,39.6,30.03,NW,315,1.1,0.0,77,0.00,CLR,,0.00,WeatherDisplay:10.37,2013-02-04 03:47:00,
2013-02-03 21:52:00,46.2,39.4,30.03,NW,315,1.1,0.0,77,0.00,CLR,,0.00,WeatherDisplay:10.37,2013-02-04 03:52:00,
2013-02-03 21:57:00,46.0,39.6,30.03,NW,315,1.1,0.0,78,0.00,CLR,,0.00,WeatherDisplay:10.37,2013-02-04 03:57:00,
2013-02-03 22:02:00,45.9,39.4,30.03,North,0,1.1,0.0,78,0.00,CLR,,0.00,WeatherDisplay:10.37,2013-02-04 04:02:00,
2013-02-03 22:07:00,45.9,39.4,30.03,North,0,1.1,0.0,78,0.00,CLR,,0.00,WeatherDisplay:10.37,2013-02-04 04:07:00,
2013-02-03 22:12:00,45.5,39.4,30.03,NE,45,1.1,1.1,79,0.00,CLR,,0.00,WeatherDisplay:10.37,2013-02-04 04:12:00,
2013-02-03 22:17:00,45.3,39.2,30.03,NE,45,2.2,2.2,79,0.00,CLR,,0.00,WeatherDisplay:10.37,2013-02-04 04:17:00,
2013-02-03 22:22:00,45.5,39.7,30.03,North,0,1.1,0.0,80,0.00,CLR,,0.00,WeatherDisplay:10.37,2013-02-04 04:22:00,
2013-02-03 22:27:00,45.5,39.7,30.02,North,0,1.1,0.0,80,0.00,CLR,,0.00,WeatherDisplay:10.37,2013-02-04 04:27:00,
2013-02-03 22:32:00,45.5,39.7,30.03,North,0,1.1,0.0,80,0.00,CLR,,0.00,WeatherDisplay:10.37,2013-02-04 04:32:00,
2013-02-03 22:37:00,45.9,40.4,30.03,North,0,1.1,0.0,81,0.00,CLR,,0.00,WeatherDisplay:10.37,2013-02-04 04:37:00,
2013-02-03 22:42:00,45.9,40.4,30.03,North,0,1.1,1.1,81,0.00,CLR,,0.00,WeatherDisplay:10.37,2013-02-04 04:42:00,
2013-02-03 22:47:00,46.0,40.5,30.02,North,0,1.1,0.0,81,0.00,CLR,,0.00,WeatherDisplay:10.37,2013-02-04 04:47:00,
2013-02-03 22:52:00,46.0,40.5,30.02,North,0,1.1,0.0,81,0.00,CLR,,0.00,WeatherDisplay:10.37,2013-02-04 04:52:00,
2013-02-03 22:57:00,46.2,40.7,30.01,North,0,1.1,0.0,81,0.00,CLR,,0.00,WeatherDisplay:10.37,2013-02-04 04:57:00,
2013-02-03 23:00:00,46.2,40.7,30.01,North,0,1.1,0.0,81,0.00,CLR,,0.00,WeatherDisplay:10.37,2013-02-04 05:00:00,
2013-02-03 23:03:00,46.2,40.7,30.01,North,0,1.1,0.0,81,0.00,CLR,,0.00,WeatherDisplay:10.37,2013-02-04 05:03:00,
2013-02-03 23:08:00,46.0,40.5,30.01,North,0,1.1,1.1,81,0.00,CLR,,0.00,WeatherDisplay:10.37,2013-02-04 05:08:00,
2013-02-03 23:13:00,45.7,40.2,30.01,North,0,1.1,0.0,81,0.00,CLR,,0.00,WeatherDisplay:10.37,2013-02-04 05:13:00,
2013-02-03 23:18:00,45.7,40.2,30.01,North,0,0.0,0.0,81,0.00,CLR,,0.00,WeatherDisplay:10.37,2013-02-04 05:18:00,
2013-02-03 23:23:00,45.5,40.3,30.00,North,0,1.1,0.0,82,0.00,CLR,,0.00,WeatherDisplay:10.37,2013-02-04 05:23:00,
2013-02-03 23:28:00,45.3,40.1,30.00,North,0,1.1,0.0,82,0.00,CLR,,0.00,WeatherDisplay:10.37,2013-02-04 05:28:00,
2013-02-03 23:33:00,45.3,40.1,30.00,North,0,1.1,0.0,82,0.00,CLR,,0.00,WeatherDisplay:10.37,2013-02-04 05:33:00,
2013-02-03 23:38:00,45.3,40.1,30.00,North,0,0.0,0.0,82,0.00,CLR,,0.00,WeatherDisplay:10.37,2013-02-04 05:38:00,
2013-02-03 23:43:00,45.3,40.1,30.00,North,0,0.0,0.0,82,0.00,CLR,,0.00,WeatherDisplay:10.37,2013-02-04 05:43:00,
2013-02-03 23:48:00,45.3,40.5,30.00,SW,225,0.0,0.0,83,0.00,CLR,,0.00,WeatherDisplay:10.37,2013-02-04 05:48:00,
2013-02-03 23:53:00,45.3,40.5,30.00,SW,225,0.0,0.0,83,0.00,CLR,,0.00,WeatherDisplay:10.37,2013-02-04 05:53:00,
2013-02-03 23:58:00,45.1,40.3,29.99,SW,225,1.1,0.0,83,0.00,CLR,,0.00,WeatherDisplay:10.37,2013-02-04 05:58:00,